sensor_id;sensor_type;location;lat;lon;timestamp;temperature;humidity
30379;DHT22;17168;49.164;9.060;2023-11-21T00:02:11;15.00;78.90
30379;DHT22;17168;49.164;9.060;2023-11-21T00:04:44;14.90;78.30
30379;DHT22;17168;49.164;9.060;2023-11-21T00:07:17;14.70;78.10
30379;DHT22;17168;49.164;9.060;2023-11-21T00:09:50;14.40;78.40
30379;DHT22;17168;49.164;9.060;2023-11-21T00:12:25;14.00;79.00
30379;DHT22;17168;49.164;9.060;2023-11-21T00:14:57;13.60;79.90
30379;DHT22;17168;49.164;9.060;2023-11-21T00:17:30;13.20;80.90
30379;DHT22;17168;49.164;9.060;2023-11-21T00:20:02;12.90;81.80
30379;DHT22;17168;49.164;9.060;2023-11-21T00:22:38;12.60;82.70
30379;DHT22;17168;49.164;9.060;2023-11-21T00:25:10;12.40;83.70
30379;DHT22;17168;49.164;9.060;2023-11-21T00:27:45;12.20;84.50
30379;DHT22;17168;49.164;9.060;2023-11-21T00:30:18;12.00;85.40
30379;DHT22;17168;49.164;9.060;2023-11-21T00:32:52;11.90;86.30
30379;DHT22;17168;49.164;9.060;2023-11-21T00:35:24;11.70;87.10
30379;DHT22;17168;49.164;9.060;2023-11-21T00:37:59;11.60;88.20
30379;DHT22;17168;49.164;9.060;2023-11-21T00:40:31;11.50;89.60
30379;DHT22;17168;49.164;9.060;2023-11-21T00:43:06;11.30;90.30
30379;DHT22;17168;49.164;9.060;2023-11-21T00:45:38;11.20;90.90
30379;DHT22;17168;49.164;9.060;2023-11-21T00:48:12;11.20;91.50
30379;DHT22;17168;49.164;9.060;2023-11-21T00:50:45;11.10;92.10
30379;DHT22;17168;49.164;9.060;2023-11-21T00:53:20;11.00;92.80
30379;DHT22;17168;49.164;9.060;2023-11-21T00:55:53;11.00;93.50
30379;DHT22;17168;49.164;9.060;2023-11-21T00:58:31;10.90;94.20
30379;DHT22;17168;49.164;9.060;2023-11-21T01:01:04;10.90;94.90
30379;DHT22;17168;49.164;9.060;2023-11-21T01:03:37;10.80;95.70
30379;DHT22;17168;49.164;9.060;2023-11-21T01:06:09;10.80;96.30
30379;DHT22;17168;49.164;9.060;2023-11-21T01:08:44;10.80;96.90
30379;DHT22;17168;49.164;9.060;2023-11-21T01:11:16;10.80;97.50
30379;DHT22;17168;49.164;9.060;2023-11-21T01:13:51;10.80;98.00
30379;DHT22;17168;49.164;9.060;2023-11-21T01:16:23;10.70;98.50
30379;DHT22;17168;49.164;9.060;2023-11-21T01:18:56;10.70;99.00
30379;DHT22;17168;49.164;9.060;2023-11-21T01:21:29;10.70;99.40
30379;DHT22;17168;49.164;9.060;2023-11-21T01:24:03;10.70;99.80
30379;DHT22;17168;49.164;9.060;2023-11-21T01:26:36;10.70;99.90
30379;DHT22;17168;49.164;9.060;2023-11-21T01:29:10;10.60;99.90
30379;DHT22;17168;49.164;9.060;2023-11-21T01:31:43;10.60;99.90
30379;DHT22;17168;49.164;9.060;2023-11-21T01:34:15;10.60;99.90
30379;DHT22;17168;49.164;9.060;2023-11-21T01:36:48;10.50;99.90
30379;DHT22;17168;49.164;9.060;2023-11-21T01:39:20;10.50;99.90
30379;DHT22;17168;49.164;9.060;2023-11-21T01:41:56;10.50;99.90
30379;DHT22;17168;49.164;9.060;2023-11-21T01:44:33;10.40;99.90
30379;DHT22;17168;49.164;9.060;2023-11-21T01:47:05;10.40;99.90
30379;DHT22;17168;49.164;9.060;2023-11-21T01:49:38;10.40;99.90
30379;DHT22;17168;49.164;9.060;2023-11-21T01:52:11;10.40;99.90
30379;DHT22;17168;49.164;9.060;2023-11-21T01:54:44;10.40;99.90
30379;DHT22;17168;49.164;9.060;2023-11-21T01:57:18;10.40;99.90
30379;DHT22;17168;49.164;9.060;2023-11-21T01:59:54;10.40;99.90
30379;DHT22;17168;49.164;9.060;2023-11-21T02:02:26;10.40;99.90
30379;DHT22;17168;49.164;9.060;2023-11-21T02:04:58;10.40;99.90
30379;DHT22;17168;49.164;9.060;2023-11-21T02:07:31;10.40;99.90
30379;DHT22;17168;49.164;9.060;2023-11-21T02:10:05;10.40;99.90
30379;DHT22;17168;49.164;9.060;2023-11-21T02:12:38;10.40;99.90
30379;DHT22;17168;49.164;9.060;2023-11-21T02:15:14;10.40;99.90
30379;DHT22;17168;49.164;9.060;2023-11-21T02:17:52;10.40;99.90
30379;DHT22;17168;49.164;9.060;2023-11-21T02:20:26;10.40;99.90
30379;DHT22;17168;49.164;9.060;2023-11-21T02:23:03;10.40;99.90
30379;DHT22;17168;49.164;9.060;2023-11-21T02:25:35;10.40;99.90
30379;DHT22;17168;49.164;9.060;2023-11-21T02:28:09;10.40;99.90
30379;DHT22;17168;49.164;9.060;2023-11-21T02:30:45;10.50;99.90
30379;DHT22;17168;49.164;9.060;2023-11-21T02:33:17;10.40;99.90
30379;DHT22;17168;49.164;9.060;2023-11-21T02:35:49;10.50;99.90
30379;DHT22;17168;49.164;9.060;2023-11-21T02:38:29;10.50;99.90
30379;DHT22;17168;49.164;9.060;2023-11-21T02:41:02;10.50;99.90
30379;DHT22;17168;49.164;9.060;2023-11-21T02:43:36;10.50;99.90
30379;DHT22;17168;49.164;9.060;2023-11-21T02:46:10;10.50;99.90
30379;DHT22;17168;49.164;9.060;2023-11-21T02:48:43;10.50;99.90
30379;DHT22;17168;49.164;9.060;2023-11-21T02:51:15;10.60;99.90
30379;DHT22;17168;49.164;9.060;2023-11-21T02:53:50;10.50;99.90
30379;DHT22;17168;49.164;9.060;2023-11-21T02:56:23;10.60;99.90
30379;DHT22;17168;49.164;9.060;2023-11-21T02:58:55;10.60;99.90
30379;DHT22;17168;49.164;9.060;2023-11-21T03:01:28;10.60;99.90
30379;DHT22;17168;49.164;9.060;2023-11-21T03:04:01;10.60;99.90
30379;DHT22;17168;49.164;9.060;2023-11-21T03:06:33;10.60;99.90
30379;DHT22;17168;49.164;9.060;2023-11-21T03:09:08;10.60;99.90
30379;DHT22;17168;49.164;9.060;2023-11-21T03:11:40;10.60;99.90
30379;DHT22;17168;49.164;9.060;2023-11-21T03:14:13;10.50;99.90
30379;DHT22;17168;49.164;9.060;2023-11-21T03:16:45;10.60;99.90
30379;DHT22;17168;49.164;9.060;2023-11-21T03:19:17;10.60;99.90
30379;DHT22;17168;49.164;9.060;2023-11-21T03:21:50;10.50;99.90
30379;DHT22;17168;49.164;9.060;2023-11-21T03:24:27;10.50;99.90
30379;DHT22;17168;49.164;9.060;2023-11-21T03:27:00;10.50;99.90
30379;DHT22;17168;49.164;9.060;2023-11-21T03:29:32;10.50;99.90
30379;DHT22;17168;49.164;9.060;2023-11-21T03:32:05;10.40;99.90
30379;DHT22;17168;49.164;9.060;2023-11-21T03:34:53;10.40;99.90
30379;DHT22;17168;49.164;9.060;2023-11-21T03:37:27;10.40;99.90
30379;DHT22;17168;49.164;9.060;2023-11-21T03:40:03;10.40;99.90
30379;DHT22;17168;49.164;9.060;2023-11-21T03:42:36;10.40;99.90
30379;DHT22;17168;49.164;9.060;2023-11-21T03:45:09;10.40;99.90
30379;DHT22;17168;49.164;9.060;2023-11-21T03:47:42;10.30;99.90
30379;DHT22;17168;49.164;9.060;2023-11-21T03:50:14;10.30;99.90
30379;DHT22;17168;49.164;9.060;2023-11-21T03:52:46;10.30;99.90
30379;DHT22;17168;49.164;9.060;2023-11-21T03:55:21;10.30;99.90
30379;DHT22;17168;49.164;9.060;2023-11-21T03:57:55;10.30;99.90
30379;DHT22;17168;49.164;9.060;2023-11-21T04:00:28;10.20;99.90
30379;DHT22;17168;49.164;9.060;2023-11-21T04:03:01;10.30;99.90
30379;DHT22;17168;49.164;9.060;2023-11-21T04:05:33;10.20;99.90
30379;DHT22;17168;49.164;9.060;2023-11-21T04:08:05;10.20;99.90
30379;DHT22;17168;49.164;9.060;2023-11-21T04:10:40;10.20;99.90
30379;DHT22;17168;49.164;9.060;2023-11-21T04:13:14;10.20;99.90
30379;DHT22;17168;49.164;9.060;2023-11-21T04:15:46;10.20;99.90
30379;DHT22;17168;49.164;9.060;2023-11-21T04:18:18;10.20;99.90
30379;DHT22;17168;49.164;9.060;2023-11-21T04:20:51;10.20;99.90
30379;DHT22;17168;49.164;9.060;2023-11-21T04:23:23;10.20;99.90
30379;DHT22;17168;49.164;9.060;2023-11-21T04:25:58;10.20;99.90
30379;DHT22;17168;49.164;9.060;2023-11-21T04:28:31;10.10;99.90
30379;DHT22;17168;49.164;9.060;2023-11-21T04:31:03;10.10;99.90
30379;DHT22;17168;49.164;9.060;2023-11-21T04:33:35;10.10;99.90
30379;DHT22;17168;49.164;9.060;2023-11-21T04:36:08;10.10;99.90
30379;DHT22;17168;49.164;9.060;2023-11-21T04:38:41;10.10;99.90
30379;DHT22;17168;49.164;9.060;2023-11-21T04:41:17;10.10;99.90
30379;DHT22;17168;49.164;9.060;2023-11-21T04:43:50;10.10;99.90
30379;DHT22;17168;49.164;9.060;2023-11-21T04:46:22;10.10;99.90
30379;DHT22;17168;49.164;9.060;2023-11-21T04:48:54;10.10;99.90
30379;DHT22;17168;49.164;9.060;2023-11-21T04:51:26;10.20;99.90
30379;DHT22;17168;49.164;9.060;2023-11-21T04:53:59;10.20;99.90
30379;DHT22;17168;49.164;9.060;2023-11-21T04:56:34;10.10;99.90
30379;DHT22;17168;49.164;9.060;2023-11-21T04:59:06;10.20;99.90
30379;DHT22;17168;49.164;9.060;2023-11-21T05:01:38;10.20;99.90
30379;DHT22;17168;49.164;9.060;2023-11-21T05:04:11;10.10;99.90
30379;DHT22;17168;49.164;9.060;2023-11-21T05:06:43;10.10;99.90
30379;DHT22;17168;49.164;9.060;2023-11-21T05:09:16;10.20;99.90
30379;DHT22;17168;49.164;9.060;2023-11-21T05:11:51;10.50;99.90
30379;DHT22;17168;49.164;9.060;2023-11-21T05:14:23;10.60;99.90
30379;DHT22;17168;49.164;9.060;2023-11-21T05:16:55;10.60;99.90
30379;DHT22;17168;49.164;9.060;2023-11-21T05:19:27;10.70;99.90
30379;DHT22;17168;49.164;9.060;2023-11-21T05:22:00;10.60;99.90
30379;DHT22;17168;49.164;9.060;2023-11-21T05:24:33;10.60;99.90
30379;DHT22;17168;49.164;9.060;2023-11-21T05:27:08;10.60;99.90
30379;DHT22;17168;49.164;9.060;2023-11-21T05:29:41;10.60;99.90
30379;DHT22;17168;49.164;9.060;2023-11-21T05:32:13;10.60;99.90
30379;DHT22;17168;49.164;9.060;2023-11-21T05:34:46;10.50;99.90
30379;DHT22;17168;49.164;9.060;2023-11-21T05:37:18;10.50;99.90
30379;DHT22;17168;49.164;9.060;2023-11-21T05:39:58;10.50;99.90
30379;DHT22;17168;49.164;9.060;2023-11-21T05:42:33;10.50;99.90
30379;DHT22;17168;49.164;9.060;2023-11-21T05:45:06;10.50;99.90
30379;DHT22;17168;49.164;9.060;2023-11-21T05:47:44;10.50;99.90
30379;DHT22;17168;49.164;9.060;2023-11-21T05:50:19;10.40;99.90
30379;DHT22;17168;49.164;9.060;2023-11-21T05:52:52;10.40;99.90
30379;DHT22;17168;49.164;9.060;2023-11-21T05:55:24;10.40;99.90
30379;DHT22;17168;49.164;9.060;2023-11-21T05:58:00;10.40;99.90
30379;DHT22;17168;49.164;9.060;2023-11-21T06:00:33;10.40;99.90
30379;DHT22;17168;49.164;9.060;2023-11-21T06:03:05;10.30;99.90
30379;DHT22;17168;49.164;9.060;2023-11-21T06:05:38;10.30;99.90
30379;DHT22;17168;49.164;9.060;2023-11-21T06:08:14;10.30;99.90
30379;DHT22;17168;49.164;9.060;2023-11-21T06:10:49;10.30;99.90
30379;DHT22;17168;49.164;9.060;2023-11-21T06:13:30;10.20;99.90
30379;DHT22;17168;49.164;9.060;2023-11-21T06:16:06;10.20;99.90
30379;DHT22;17168;49.164;9.060;2023-11-21T06:18:38;10.20;99.90
30379;DHT22;17168;49.164;9.060;2023-11-21T06:21:13;10.20;99.90
30379;DHT22;17168;49.164;9.060;2023-11-21T06:23:46;10.20;99.90
30379;DHT22;17168;49.164;9.060;2023-11-21T06:26:20;10.20;99.90
30379;DHT22;17168;49.164;9.060;2023-11-21T06:28:55;10.20;99.90
30379;DHT22;17168;49.164;9.060;2023-11-21T06:31:29;10.20;99.90
30379;DHT22;17168;49.164;9.060;2023-11-21T06:34:01;10.10;99.90
30379;DHT22;17168;49.164;9.060;2023-11-21T06:36:35;10.10;99.90
30379;DHT22;17168;49.164;9.060;2023-11-21T06:39:08;10.10;99.90
30379;DHT22;17168;49.164;9.060;2023-11-21T06:41:40;10.10;99.90
30379;DHT22;17168;49.164;9.060;2023-11-21T06:44:15;10.10;99.90
30379;DHT22;17168;49.164;9.060;2023-11-21T06:46:47;10.00;99.90
30379;DHT22;17168;49.164;9.060;2023-11-21T06:49:20;10.00;99.90
30379;DHT22;17168;49.164;9.060;2023-11-21T06:51:53;10.00;99.90
30379;DHT22;17168;49.164;9.060;2023-11-21T06:54:30;10.00;99.90
30379;DHT22;17168;49.164;9.060;2023-11-21T06:57:05;10.00;99.90
30379;DHT22;17168;49.164;9.060;2023-11-21T06:59:40;10.00;99.90
30379;DHT22;17168;49.164;9.060;2023-11-21T07:02:13;10.00;99.90
30379;DHT22;17168;49.164;9.060;2023-11-21T07:04:46;10.00;99.90
30379;DHT22;17168;49.164;9.060;2023-11-21T07:07:19;10.00;99.90
30379;DHT22;17168;49.164;9.060;2023-11-21T07:09:54;10.00;99.90
30379;DHT22;17168;49.164;9.060;2023-11-21T07:12:26;10.00;99.90
30379;DHT22;17168;49.164;9.060;2023-11-21T07:15:01;10.00;99.90
30379;DHT22;17168;49.164;9.060;2023-11-21T07:17:35;10.10;99.90
30379;DHT22;17168;49.164;9.060;2023-11-21T07:20:35;10.00;99.90
30379;DHT22;17168;49.164;9.060;2023-11-21T07:23:32;10.10;99.90
30379;DHT22;17168;49.164;9.060;2023-11-21T07:26:05;10.00;99.90
30379;DHT22;17168;49.164;9.060;2023-11-21T07:28:41;10.10;99.90
30379;DHT22;17168;49.164;9.060;2023-11-21T07:31:20;10.10;99.90
30379;DHT22;17168;49.164;9.060;2023-11-21T07:34:02;10.10;99.90
30379;DHT22;17168;49.164;9.060;2023-11-21T07:36:35;10.10;99.90
30379;DHT22;17168;49.164;9.060;2023-11-21T07:39:08;10.10;99.90
30379;DHT22;17168;49.164;9.060;2023-11-21T07:42:07;10.10;99.90
30379;DHT22;17168;49.164;9.060;2023-11-21T07:48:58;10.10;99.90
30379;DHT22;17168;49.164;9.060;2023-11-21T07:51:45;10.10;99.90
30379;DHT22;17168;49.164;9.060;2023-11-21T08:14:43;10.20;99.90
30379;DHT22;17168;49.164;9.060;2023-11-21T08:17:22;10.20;99.90
30379;DHT22;17168;49.164;9.060;2023-11-21T08:19:55;10.20;99.90
30379;DHT22;17168;49.164;9.060;2023-11-21T08:22:27;10.30;99.90
30379;DHT22;17168;49.164;9.060;2023-11-21T08:25:00;10.30;99.90
30379;DHT22;17168;49.164;9.060;2023-11-21T08:27:32;10.30;99.90
30379;DHT22;17168;49.164;9.060;2023-11-21T08:30:08;10.30;99.90
30379;DHT22;17168;49.164;9.060;2023-11-21T08:32:40;10.40;99.90
30379;DHT22;17168;49.164;9.060;2023-11-21T08:35:12;10.40;99.90
30379;DHT22;17168;49.164;9.060;2023-11-21T08:37:45;10.30;99.90
30379;DHT22;17168;49.164;9.060;2023-11-21T08:40:17;10.30;99.90
30379;DHT22;17168;49.164;9.060;2023-11-21T08:42:50;10.30;99.90
30379;DHT22;17168;49.164;9.060;2023-11-21T08:45:27;10.30;99.90
30379;DHT22;17168;49.164;9.060;2023-11-21T08:47:59;10.30;99.90
30379;DHT22;17168;49.164;9.060;2023-11-21T08:50:31;10.30;99.90
30379;DHT22;17168;49.164;9.060;2023-11-21T08:53:04;10.30;99.90
30379;DHT22;17168;49.164;9.060;2023-11-21T08:55:36;10.30;99.90
30379;DHT22;17168;49.164;9.060;2023-11-21T08:58:09;10.40;99.90
30379;DHT22;17168;49.164;9.060;2023-11-21T09:00:44;10.40;99.90
30379;DHT22;17168;49.164;9.060;2023-11-21T09:03:18;10.40;99.90
30379;DHT22;17168;49.164;9.060;2023-11-21T09:05:51;10.50;99.90
30379;DHT22;17168;49.164;9.060;2023-11-21T09:08:23;10.50;99.90
30379;DHT22;17168;49.164;9.060;2023-11-21T09:10:55;10.50;99.90
30379;DHT22;17168;49.164;9.060;2023-11-21T09:13:27;10.60;99.90
30379;DHT22;17168;49.164;9.060;2023-11-21T09:16:03;10.60;99.90
30379;DHT22;17168;49.164;9.060;2023-11-21T09:18:35;10.60;99.90
30379;DHT22;17168;49.164;9.060;2023-11-21T09:21:07;10.70;99.90
30379;DHT22;17168;49.164;9.060;2023-11-21T09:23:40;10.70;99.90
30379;DHT22;17168;49.164;9.060;2023-11-21T09:26:13;10.70;99.90
30379;DHT22;17168;49.164;9.060;2023-11-21T09:28:48;10.80;99.90
30379;DHT22;17168;49.164;9.060;2023-11-21T09:31:23;10.90;99.90
30379;DHT22;17168;49.164;9.060;2023-11-21T09:33:56;10.90;99.90
30379;DHT22;17168;49.164;9.060;2023-11-21T09:36:29;11.00;99.90
30379;DHT22;17168;49.164;9.060;2023-11-21T09:39:02;11.10;99.90
30379;DHT22;17168;49.164;9.060;2023-11-21T09:41:43;11.10;99.90
30379;DHT22;17168;49.164;9.060;2023-11-21T09:44:18;11.20;99.90
30379;DHT22;17168;49.164;9.060;2023-11-21T09:46:56;11.30;99.90
30379;DHT22;17168;49.164;9.060;2023-11-21T09:49:32;11.30;99.90
30379;DHT22;17168;49.164;9.060;2023-11-21T09:52:08;11.40;99.90
30379;DHT22;17168;49.164;9.060;2023-11-21T09:54:41;11.50;99.90
30379;DHT22;17168;49.164;9.060;2023-11-21T09:57:14;11.50;99.90
30379;DHT22;17168;49.164;9.060;2023-11-21T09:59:51;11.60;99.90
30379;DHT22;17168;49.164;9.060;2023-11-21T10:02:28;11.60;99.90
30379;DHT22;17168;49.164;9.060;2023-11-21T10:05:03;11.70;99.90
30379;DHT22;17168;49.164;9.060;2023-11-21T10:07:36;11.70;99.90
30379;DHT22;17168;49.164;9.060;2023-11-21T10:10:09;11.80;99.90
30379;DHT22;17168;49.164;9.060;2023-11-21T10:12:43;11.80;99.90
30379;DHT22;17168;49.164;9.060;2023-11-21T10:15:16;11.80;99.90
30379;DHT22;17168;49.164;9.060;2023-11-21T10:17:53;11.70;99.90
30379;DHT22;17168;49.164;9.060;2023-11-21T10:20:26;11.80;99.90
30379;DHT22;17168;49.164;9.060;2023-11-21T10:22:58;11.80;99.90
30379;DHT22;17168;49.164;9.060;2023-11-21T10:25:31;11.70;99.90
30379;DHT22;17168;49.164;9.060;2023-11-21T10:28:04;11.80;99.90
30379;DHT22;17168;49.164;9.060;2023-11-21T10:30:39;11.70;99.90
30379;DHT22;17168;49.164;9.060;2023-11-21T10:33:14;11.80;99.90
30379;DHT22;17168;49.164;9.060;2023-11-21T10:35:47;11.80;99.90
30379;DHT22;17168;49.164;9.060;2023-11-21T10:38:23;11.80;99.90
30379;DHT22;17168;49.164;9.060;2023-11-21T10:40:56;11.80;99.90
30379;DHT22;17168;49.164;9.060;2023-11-21T10:43:29;11.90;99.90
30379;DHT22;17168;49.164;9.060;2023-11-21T10:46:05;11.90;99.90
30379;DHT22;17168;49.164;9.060;2023-11-21T10:48:41;11.90;99.90
30379;DHT22;17168;49.164;9.060;2023-11-21T10:51:14;12.00;99.90
30379;DHT22;17168;49.164;9.060;2023-11-21T10:53:46;12.10;99.90
30379;DHT22;17168;49.164;9.060;2023-11-21T10:56:20;12.20;99.90
30379;DHT22;17168;49.164;9.060;2023-11-21T10:58:55;12.40;99.90
30379;DHT22;17168;49.164;9.060;2023-11-21T11:01:29;12.50;99.90
30379;DHT22;17168;49.164;9.060;2023-11-21T11:04:06;12.60;99.90
30379;DHT22;17168;49.164;9.060;2023-11-21T11:06:42;12.60;99.90
30379;DHT22;17168;49.164;9.060;2023-11-21T11:09:15;12.60;99.90
30379;DHT22;17168;49.164;9.060;2023-11-21T11:11:48;12.50;99.90
30379;DHT22;17168;49.164;9.060;2023-11-21T11:14:21;12.50;99.90
30379;DHT22;17168;49.164;9.060;2023-11-21T11:16:58;12.50;99.90
30379;DHT22;17168;49.164;9.060;2023-11-21T11:19:34;12.50;99.90
30379;DHT22;17168;49.164;9.060;2023-11-21T11:22:19;12.40;99.90
30379;DHT22;17168;49.164;9.060;2023-11-21T11:25:12;12.40;99.90
30379;DHT22;17168;49.164;9.060;2023-11-21T11:27:52;12.30;99.90
30379;DHT22;17168;49.164;9.060;2023-11-21T11:30:36;12.30;99.90
30379;DHT22;17168;49.164;9.060;2023-11-21T11:33:18;12.30;99.90
30379;DHT22;17168;49.164;9.060;2023-11-21T11:36:06;12.30;99.90
30379;DHT22;17168;49.164;9.060;2023-11-21T11:38:45;12.20;99.90
30379;DHT22;17168;49.164;9.060;2023-11-21T11:41:25;12.20;99.90
30379;DHT22;17168;49.164;9.060;2023-11-21T11:43:59;12.20;99.90
30379;DHT22;17168;49.164;9.060;2023-11-21T11:46:50;12.20;99.90
30379;DHT22;17168;49.164;9.060;2023-11-21T11:49:25;12.20;99.90
30379;DHT22;17168;49.164;9.060;2023-11-21T11:55:08;12.10;99.90
30379;DHT22;17168;49.164;9.060;2023-11-21T11:57:47;12.20;99.90
30379;DHT22;17168;49.164;9.060;2023-11-21T12:00:21;12.10;99.90
30379;DHT22;17168;49.164;9.060;2023-11-21T12:02:58;12.10;99.90
30379;DHT22;17168;49.164;9.060;2023-11-21T12:05:33;12.20;99.90
30379;DHT22;17168;49.164;9.060;2023-11-21T12:08:08;12.20;99.90
30379;DHT22;17168;49.164;9.060;2023-11-21T12:10:43;12.20;99.90
30379;DHT22;17168;49.164;9.060;2023-11-21T12:13:16;12.20;99.90
30379;DHT22;17168;49.164;9.060;2023-11-21T12:15:49;12.30;99.90
30379;DHT22;17168;49.164;9.060;2023-11-21T12:18:21;12.30;99.90
30379;DHT22;17168;49.164;9.060;2023-11-21T12:20:53;12.60;99.90
30379;DHT22;17168;49.164;9.060;2023-11-21T12:23:26;13.20;99.90
30379;DHT22;17168;49.164;9.060;2023-11-21T12:26:01;14.10;99.90
30379;DHT22;17168;49.164;9.060;2023-11-21T12:28:33;15.10;99.90
30379;DHT22;17168;49.164;9.060;2023-11-21T12:31:06;16.10;99.90
30379;DHT22;17168;49.164;9.060;2023-11-21T12:33:52;16.90;99.90
30379;DHT22;17168;49.164;9.060;2023-11-21T12:36:25;17.50;99.90
30379;DHT22;17168;49.164;9.060;2023-11-21T12:38:58;17.90;99.90
30379;DHT22;17168;49.164;9.060;2023-11-21T12:41:33;17.90;96.10
30379;DHT22;17168;49.164;9.060;2023-11-21T12:44:11;17.70;91.90
30379;DHT22;17168;49.164;9.060;2023-11-21T12:46:44;17.40;90.30
30379;DHT22;17168;49.164;9.060;2023-11-21T12:49:17;17.10;88.00
30379;DHT22;17168;49.164;9.060;2023-11-21T12:51:50;16.80;86.90
30379;DHT22;17168;49.164;9.060;2023-11-21T12:54:23;16.40;86.80
30379;DHT22;17168;49.164;9.060;2023-11-21T12:57:02;16.10;87.50
30379;DHT22;17168;49.164;9.060;2023-11-21T12:59:38;15.80;88.20
30379;DHT22;17168;49.164;9.060;2023-11-21T13:02:12;15.50;88.60
30379;DHT22;17168;49.164;9.060;2023-11-21T13:04:51;15.30;89.20
30379;DHT22;17168;49.164;9.060;2023-11-21T13:07:24;15.00;89.40
30379;DHT22;17168;49.164;9.060;2023-11-21T13:09:58;14.80;90.00
30379;DHT22;17168;49.164;9.060;2023-11-21T13:12:33;14.60;90.40
30379;DHT22;17168;49.164;9.060;2023-11-21T13:15:08;14.40;90.70
30379;DHT22;17168;49.164;9.060;2023-11-21T13:17:41;14.30;91.20
30379;DHT22;17168;49.164;9.060;2023-11-21T13:20:14;14.10;91.60
30379;DHT22;17168;49.164;9.060;2023-11-21T13:22:53;14.00;92.00
30379;DHT22;17168;49.164;9.060;2023-11-21T13:25:27;13.90;92.40
30379;DHT22;17168;49.164;9.060;2023-11-21T13:28:04;13.80;92.70
30379;DHT22;17168;49.164;9.060;2023-11-21T13:30:36;13.70;93.00
30379;DHT22;17168;49.164;9.060;2023-11-21T13:33:09;13.70;93.20
30379;DHT22;17168;49.164;9.060;2023-11-21T13:35:46;13.60;93.60
30379;DHT22;17168;49.164;9.060;2023-11-21T13:38:23;13.60;94.10
30379;DHT22;17168;49.164;9.060;2023-11-21T13:40:56;13.60;94.60
30379;DHT22;17168;49.164;9.060;2023-11-21T13:43:32;13.50;95.00
30379;DHT22;17168;49.164;9.060;2023-11-21T13:46:05;13.60;95.80
30379;DHT22;17168;49.164;9.060;2023-11-21T13:48:49;13.60;95.90
30379;DHT22;17168;49.164;9.060;2023-11-21T13:51:28;13.60;96.30
30379;DHT22;17168;49.164;9.060;2023-11-21T13:54:11;13.60;96.70
30379;DHT22;17168;49.164;9.060;2023-11-21T13:56:43;13.80;97.70
30379;DHT22;17168;49.164;9.060;2023-11-21T13:59:20;13.80;98.10
30379;DHT22;17168;49.164;9.060;2023-11-21T14:01:56;14.00;98.80
30379;DHT22;17168;49.164;9.060;2023-11-21T14:04:29;14.10;98.90
30379;DHT22;17168;49.164;9.060;2023-11-21T14:07:20;14.30;98.90
30379;DHT22;17168;49.164;9.060;2023-11-21T14:09:58;14.40;97.10
30379;DHT22;17168;49.164;9.060;2023-11-21T14:12:32;14.40;96.80
30379;DHT22;17168;49.164;9.060;2023-11-21T14:15:13;14.50;96.60
30379;DHT22;17168;49.164;9.060;2023-11-21T14:17:49;14.50;96.10
30379;DHT22;17168;49.164;9.060;2023-11-21T14:20:22;14.50;94.70
30379;DHT22;17168;49.164;9.060;2023-11-21T14:22:54;14.40;94.30
30379;DHT22;17168;49.164;9.060;2023-11-21T14:25:26;14.30;94.10
30379;DHT22;17168;49.164;9.060;2023-11-21T14:27:59;14.30;94.10
30379;DHT22;17168;49.164;9.060;2023-11-21T14:30:33;14.20;94.00
30379;DHT22;17168;49.164;9.060;2023-11-21T14:33:08;14.20;93.70
30379;DHT22;17168;49.164;9.060;2023-11-21T14:35:42;14.10;93.70
30379;DHT22;17168;49.164;9.060;2023-11-21T14:38:14;14.00;93.60
30379;DHT22;17168;49.164;9.060;2023-11-21T14:40:47;13.90;93.60
30379;DHT22;17168;49.164;9.060;2023-11-21T14:43:19;13.90;93.80
30379;DHT22;17168;49.164;9.060;2023-11-21T14:45:55;13.80;93.80
30379;DHT22;17168;49.164;9.060;2023-11-21T14:48:29;13.70;93.90
30379;DHT22;17168;49.164;9.060;2023-11-21T14:51:19;13.70;93.90
30379;DHT22;17168;49.164;9.060;2023-11-21T14:53:59;13.60;93.90
30379;DHT22;17168;49.164;9.060;2023-11-21T14:56:38;13.50;94.00
30379;DHT22;17168;49.164;9.060;2023-11-21T14:59:11;13.40;94.00
30379;DHT22;17168;49.164;9.060;2023-11-21T15:01:51;13.40;94.00
30379;DHT22;17168;49.164;9.060;2023-11-21T15:04:30;13.30;93.90
30379;DHT22;17168;49.164;9.060;2023-11-21T15:07:09;13.20;93.90
30379;DHT22;17168;49.164;9.060;2023-11-21T15:09:43;13.10;94.00
30379;DHT22;17168;49.164;9.060;2023-11-21T15:12:17;13.00;94.00
30379;DHT22;17168;49.164;9.060;2023-11-21T15:14:53;12.90;94.00
30379;DHT22;17168;49.164;9.060;2023-11-21T15:17:30;12.80;94.00
30379;DHT22;17168;49.164;9.060;2023-11-21T15:20:05;12.80;94.10
30379;DHT22;17168;49.164;9.060;2023-11-21T15:22:39;12.70;94.20
30379;DHT22;17168;49.164;9.060;2023-11-21T15:25:12;12.60;94.30
30379;DHT22;17168;49.164;9.060;2023-11-21T15:27:45;12.50;94.50
30379;DHT22;17168;49.164;9.060;2023-11-21T15:30:21;12.50;94.50
30379;DHT22;17168;49.164;9.060;2023-11-21T15:32:59;12.50;94.60
30379;DHT22;17168;49.164;9.060;2023-11-21T15:35:31;12.40;94.70
30379;DHT22;17168;49.164;9.060;2023-11-21T15:38:04;12.40;94.80
30379;DHT22;17168;49.164;9.060;2023-11-21T15:40:37;12.30;94.90
30379;DHT22;17168;49.164;9.060;2023-11-21T15:43:09;12.30;95.00
30379;DHT22;17168;49.164;9.060;2023-11-21T15:45:41;12.20;95.20
30379;DHT22;17168;49.164;9.060;2023-11-21T15:48:16;12.20;95.40
30379;DHT22;17168;49.164;9.060;2023-11-21T15:50:50;12.20;95.60
30379;DHT22;17168;49.164;9.060;2023-11-21T15:53:24;12.10;95.90
30379;DHT22;17168;49.164;9.060;2023-11-21T15:55:56;12.10;96.10
30379;DHT22;17168;49.164;9.060;2023-11-21T15:58:28;12.10;96.30
30379;DHT22;17168;49.164;9.060;2023-11-21T16:01:01;12.00;96.60
30379;DHT22;17168;49.164;9.060;2023-11-21T16:03:37;12.00;96.90
30379;DHT22;17168;49.164;9.060;2023-11-21T16:06:10;12.00;97.40
30379;DHT22;17168;49.164;9.060;2023-11-21T16:08:43;12.00;97.40
30379;DHT22;17168;49.164;9.060;2023-11-21T16:11:15;11.90;97.60
30379;DHT22;17168;49.164;9.060;2023-11-21T16:13:48;11.90;97.80
30379;DHT22;17168;49.164;9.060;2023-11-21T16:16:21;11.90;98.00
30379;DHT22;17168;49.164;9.060;2023-11-21T16:18:57;11.90;98.30
30379;DHT22;17168;49.164;9.060;2023-11-21T16:21:29;11.90;98.50
30379;DHT22;17168;49.164;9.060;2023-11-21T16:24:02;11.90;98.80
30379;DHT22;17168;49.164;9.060;2023-11-21T16:26:35;11.90;99.00
30379;DHT22;17168;49.164;9.060;2023-11-21T16:29:07;11.80;99.20
30379;DHT22;17168;49.164;9.060;2023-11-21T16:31:40;11.80;99.40
30379;DHT22;17168;49.164;9.060;2023-11-21T16:34:17;11.80;99.60
30379;DHT22;17168;49.164;9.060;2023-11-21T16:36:51;11.80;99.80
30379;DHT22;17168;49.164;9.060;2023-11-21T16:39:24;11.80;99.90
30379;DHT22;17168;49.164;9.060;2023-11-21T16:41:56;11.80;99.90
30379;DHT22;17168;49.164;9.060;2023-11-21T16:44:31;11.80;99.90